Archive for the 'MÉTÉOROLOGIE' Category

RADARS MÉTÉO DU JOUR

jeudi, août 4th, 2022

METEOX.COM

SAT24.COM

UTILISATION DES CODES AÉRONAUTIQUES

dimanche, juillet 17th, 2022


Warning: strlen() expects parameter 1 to be string, array given in /home/volets/www/WP/wp-content/themes/khaki-traveler/archive.php on line 94

GUIDE AVIATION 2021 DE MÉTÉO FRANCE

dimanche, juillet 17th, 2022


Warning: strlen() expects parameter 1 to be string, array given in /home/volets/www/WP/wp-content/themes/khaki-traveler/archive.php on line 94

AERODROME DE PERSAN-BEAUMONT (LFPA)

vendredi, juillet 15th, 2022

Altocumulus Stratiformis Perlucidus


Warning: strlen() expects parameter 1 to be string, array given in /home/volets/www/WP/wp-content/themes/khaki-traveler/archive.php on line 94

LA MÉTÉO DE CE MATIN VENDREDI 27 MAI DU CÔTÉ DE PARIS

vendredi, mai 27th, 2022

Messages METAR,TAF,SIGMET,…

LFPT PONTOISE CORMEILLES EN VEXIN
METAR: LFPT 270530Z AUTO 28004KT 250V310 9999 OVC014 13/10 Q1025=

LFPB PARIS LE BOURGET
METAR: LFPB 270530Z AUTO 27008KT 240V310 9999 OVC018 14/10 Q1025 TEMPO BKN014=
TAF LONG: LFPB 270500Z 2706/2806 27008KT 9999 BKN020 TEMPO 2706/2710 BKN014 BECMG 2717/2719 CAVOK=

LFPG PARIS CHARLES DE GAULLE
METAR: LFPG 270530Z 30008KT 270V330 9999 OVC018 13/10 Q1025 NOSIG=
TAF LONG: LFPG 270500Z 2706/2812 27008KT 9999 BKN017 TX21/2714Z TN08/2804Z TEMPO 2706/2710 BKN012 BECMG 2717/2719 CAVOK=

LFOB BEAUVAIS TILLE
METAR: LFOB 270530Z AUTO 25006KT 220V280 9999 OVC014 13/11 Q1024 TEMPO 3000 DZ BECMG BKN020=
TAF LONG: LFOB 270500Z 2706/2806 28007KT 9999 BKN013 OVC020 TEMPO 2706/2710 OVC005 BECMG 2710/2712 BKN020=

LFPV VILLACOUBLAY VELIZY
METAR: LFPV 270530Z AUTO 29008KT 250V310 9999 OVC013 12/10 Q1026 TEMPO BKN005=
TAF LONG: LFPV 270200Z 2703/2803 28007KT 9999 BKN029 TX21/2714Z TN10/2704Z TEMPO 2704/2712 BKN010 PROB30 TEMPO 2705/2711 BKN005=

LFPN TOUSSUS LE NOBLE
METAR: LFPN 270530Z AUTO 30007KT 270V330 9999 OVC014 13/10 Q1026 NOSIG=
TAF COURT: LFPN 270500Z 2706/2715 30010KT 9999 BKN020 TEMPO 2706/2710 BKN012=

LFPO PARIS ORLY
METAR: LFPO 270530Z 29009KT 260V330 9999 BKN018 14/10 Q1026 NOSIG=
TAF LONG: LFPO 270500Z 2706/2812 30010KT 9999 BKN020 TEMPO 2706/2710 BKN012 BECMG 2807/2809 01010KT=

LFPM MELUN VILLAROCHE
METAR: LFPM 270530Z AUTO 31008KT 280V350 9999 OVC021 14/10 Q1026=

LFOE EVREUX FAUVILLE
METAR: LFOE 270530Z AUTO 26005KT 230V290 9999 OVC013 13/11 Q1026 TEMPO BKN008=
TAF LONG: AMD LFOE 270355Z 2704/2803 28008KT 9999 BKN012 TEMPO 2704/2709 BKN008 BECMG 2710/2712 SCT020=

LFOP ROUEN VALLEE DE SEINE
METAR: LFOP 270530Z AUTO 25007KT 9999 OVC010 12/10 Q1025 TEMPO OVC004=
TAF LONG: LFOP 270500Z 2706/2806 28007KT 9999 BKN011 OVC020 TEMPO 2706/2710 OVC004 BECMG 2710/2712 BKN020=

Pas de METAR, TAF, SPECI pour : LFPA LFFE LFPC LFPP LFXU LFPH LFPZ LFPX LFPL LFFC LFPF LFPE LFAD LFFY LFAR LFPK LFPY LFPQ LFJS LFFQ LFFD LFFG LFON LFFL LFOW LFOR

Pas de SIGMET, GAMET, AIRMET pour : LFFF

Les messages SIGMET présentés ici sont uniquement ceux conformes à l’Annexe 3 de l’OACI.
Avis de météorologie de l’espace

Pas d’avis de météorologie de l’espace pour: KWNP LFPW YMMC EFKL ZBBB UUAG EGRR

(Source: AEROWEB)


Warning: strlen() expects parameter 1 to be string, array given in /home/volets/www/WP/wp-content/themes/khaki-traveler/archive.php on line 94

PAS TRES BEAU CE MATIN SUR LE QUART NORD-OUEST

mardi, février 1st, 2022


Warning: strlen() expects parameter 1 to be string, array given in /home/volets/www/WP/wp-content/themes/khaki-traveler/archive.php on line 94

WEBCAMS

lundi, juillet 5th, 2021


Warning: strlen() expects parameter 1 to be string, array given in /home/volets/www/WP/wp-content/themes/khaki-traveler/archive.php on line 94

LA FRANCE BIEN VFR CE MATIN .. MAIS UN PEU FROID AUSSI !

mercredi, février 21st, 2018


Warning: strlen() expects parameter 1 to be string, array given in /home/volets/www/WP/wp-content/themes/khaki-traveler/archive.php on line 94

PAS TRÈS VFR DANS LA RÉGION PARISIENNE !!

vendredi, décembre 29th, 2017


Warning: strlen() expects parameter 1 to be string, array given in /home/volets/www/WP/wp-content/themes/khaki-traveler/archive.php on line 94

OBSERVATIONS FRANCE : ANNONCE DE LA DGAC

jeudi, octobre 20th, 2016

Voir ici notre article correspondant.  OBSERVATIONS FRANCE » PAR MÉTÉO FRANCE

De nouvelles informations d’observation disponibles gratuitement sur le site de Météo-France viennent compléter les informations réglementaires déjà mises à la disposition des usagers aéronautiques sur le site Aéroweb.

La nouvelle rubrique du site Météo-France, « Observations », propose, sur la base du pas horaire, les observations des 24 dernières heures de 134 stations d’observation du réseau Météo-France pour quatre paramètres : vent, température, nébulosité, temps sensible. Les tableaux récapitulatifs de chaque station détaillent, sur la base du pas horaire, les paramètres suivants pour les 10 dernières heures : température (sous abri), humidité, temps présent, visibilité horizontale, direction du vent moyen, force du vent moyen, rafales, cumul des précipitations pression atmosphérique au niveau de la mer, visibilité, nébulosité totale, nébulosité couche basse et hauteur de base des nuages.

L’information est présentée sous forme de cartes et de tableaux. Il est possible de zoomer sur une région et d’obtenir le tableau complet des observations d’une station choisie.

Dans la rubrique « Liens utiles » disponible sur Aéroweb, le lien intitulé Météo-France pointe aujourd’hui vers cette nouvelle rubrique d’observations. Un avertissement s’affiche avant l’accès à la rubrique, il précise que : « L’usage des informations météorologiques de ce site reste sous la responsabilité du pilote uniquement au titre d’aide à la décision avant le départ. » Il est également possible de revenir sur le site Aéroweb depuis le site Météo-France, en se rendant sur la barre de navigation en haut et de choisir la rubrique Autres sites > Sites météo spécialisés > Aviation